sensor_id;sensor_type;location;lat;lon;timestamp;temperature;humidity
2913;DHT22;1466;48.778;9.166;2023-11-18T00:02:23;8.60;99.90
2913;DHT22;1466;48.778;9.166;2023-11-18T00:04:50;8.60;99.90
2913;DHT22;1466;48.778;9.166;2023-11-18T00:07:16;8.60;99.90
2913;DHT22;1466;48.778;9.166;2023-11-18T00:09:42;8.60;99.90
2913;DHT22;1466;48.778;9.166;2023-11-18T00:12:11;8.60;99.90
2913;DHT22;1466;48.778;9.166;2023-11-18T00:14:37;8.50;99.90
2913;DHT22;1466;48.778;9.166;2023-11-18T00:17:03;8.50;99.90
2913;DHT22;1466;48.778;9.166;2023-11-18T00:19:30;8.50;99.90
2913;DHT22;1466;48.778;9.166;2023-11-18T00:21:55;8.50;99.90
2913;DHT22;1466;48.778;9.166;2023-11-18T00:24:21;8.50;99.90
2913;DHT22;1466;48.778;9.166;2023-11-18T00:26:47;8.40;99.90
2913;DHT22;1466;48.778;9.166;2023-11-18T00:29:12;8.40;99.90
2913;DHT22;1466;48.778;9.166;2023-11-18T00:31:38;8.40;99.90
2913;DHT22;1466;48.778;9.166;2023-11-18T00:34:03;8.40;99.90
2913;DHT22;1466;48.778;9.166;2023-11-18T00:36:29;8.50;99.90
2913;DHT22;1466;48.778;9.166;2023-11-18T00:38:55;8.50;99.90
2913;DHT22;1466;48.778;9.166;2023-11-18T00:41:20;8.50;99.90
2913;DHT22;1466;48.778;9.166;2023-11-18T00:43:46;8.60;99.90
2913;DHT22;1466;48.778;9.166;2023-11-18T00:46:12;8.60;99.90
2913;DHT22;1466;48.778;9.166;2023-11-18T00:48:38;8.70;99.90
2913;DHT22;1466;48.778;9.166;2023-11-18T00:51:05;8.70;99.90
2913;DHT22;1466;48.778;9.166;2023-11-18T00:53:31;8.70;99.90
2913;DHT22;1466;48.778;9.166;2023-11-18T00:55:56;8.60;99.90
2913;DHT22;1466;48.778;9.166;2023-11-18T00:58:22;8.60;99.90
2913;DHT22;1466;48.778;9.166;2023-11-18T01:00:48;8.60;99.90
2913;DHT22;1466;48.778;9.166;2023-11-18T01:03:13;8.60;99.90
2913;DHT22;1466;48.778;9.166;2023-11-18T01:05:39;8.60;99.90
2913;DHT22;1466;48.778;9.166;2023-11-18T01:08:05;8.60;99.90
2913;DHT22;1466;48.778;9.166;2023-11-18T01:10:30;8.70;99.90
2913;DHT22;1466;48.778;9.166;2023-11-18T01:12:56;8.80;99.90
2913;DHT22;1466;48.778;9.166;2023-11-18T01:15:23;8.80;99.90
2913;DHT22;1466;48.778;9.166;2023-11-18T01:17:49;8.80;99.90
2913;DHT22;1466;48.778;9.166;2023-11-18T01:20:14;8.80;99.90
2913;DHT22;1466;48.778;9.166;2023-11-18T01:22:46;8.80;99.90
2913;DHT22;1466;48.778;9.166;2023-11-18T01:25:14;8.80;99.90
2913;DHT22;1466;48.778;9.166;2023-11-18T01:27:42;8.80;99.90
2913;DHT22;1466;48.778;9.166;2023-11-18T01:30:08;8.90;99.90
2913;DHT22;1466;48.778;9.166;2023-11-18T01:32:35;8.90;99.90
2913;DHT22;1466;48.778;9.166;2023-11-18T01:35:00;8.90;99.90
2913;DHT22;1466;48.778;9.166;2023-11-18T01:37:26;8.90;99.90
2913;DHT22;1466;48.778;9.166;2023-11-18T01:39:52;8.90;99.90
2913;DHT22;1466;48.778;9.166;2023-11-18T01:42:17;8.90;99.90
2913;DHT22;1466;48.778;9.166;2023-11-18T01:44:43;8.90;99.90
2913;DHT22;1466;48.778;9.166;2023-11-18T01:47:09;8.90;99.90
2913;DHT22;1466;48.778;9.166;2023-11-18T01:49:38;8.90;99.90
2913;DHT22;1466;48.778;9.166;2023-11-18T01:52:08;8.80;99.90
2913;DHT22;1466;48.778;9.166;2023-11-18T01:54:36;8.80;99.90
2913;DHT22;1466;48.778;9.166;2023-11-18T01:57:03;8.70;99.90
2913;DHT22;1466;48.778;9.166;2023-11-18T01:59:32;8.70;99.90
2913;DHT22;1466;48.778;9.166;2023-11-18T02:01:59;8.70;99.90
2913;DHT22;1466;48.778;9.166;2023-11-18T02:04:25;8.70;99.90
2913;DHT22;1466;48.778;9.166;2023-11-18T02:06:52;8.70;99.90
2913;DHT22;1466;48.778;9.166;2023-11-18T02:09:19;8.70;99.90
2913;DHT22;1466;48.778;9.166;2023-11-18T02:14:43;8.70;99.90
2913;DHT22;1466;48.778;9.166;2023-11-18T02:17:14;8.70;99.90
2913;DHT22;1466;48.778;9.166;2023-11-18T02:19:40;8.80;99.90
2913;DHT22;1466;48.778;9.166;2023-11-18T02:22:07;8.80;99.90
2913;DHT22;1466;48.778;9.166;2023-11-18T02:24:33;8.90;99.90
2913;DHT22;1466;48.778;9.166;2023-11-18T02:27:03;8.90;99.90
2913;DHT22;1466;48.778;9.166;2023-11-18T02:29:34;9.00;99.90
2913;DHT22;1466;48.778;9.166;2023-11-18T02:35:09;8.90;99.90
2913;DHT22;1466;48.778;9.166;2023-11-18T02:37:50;8.90;99.90
2913;DHT22;1466;48.778;9.166;2023-11-18T02:40:20;8.90;99.90
2913;DHT22;1466;48.778;9.166;2023-11-18T02:42:49;8.90;99.90
2913;DHT22;1466;48.778;9.166;2023-11-18T02:45:15;8.90;99.90
2913;DHT22;1466;48.778;9.166;2023-11-18T02:47:44;8.90;99.90
2913;DHT22;1466;48.778;9.166;2023-11-18T02:50:10;8.80;99.90
2913;DHT22;1466;48.778;9.166;2023-11-18T02:52:40;8.80;99.90
2913;DHT22;1466;48.778;9.166;2023-11-18T02:55:06;8.80;99.90
2913;DHT22;1466;48.778;9.166;2023-11-18T02:57:33;8.70;99.90
2913;DHT22;1466;48.778;9.166;2023-11-18T02:59:59;8.70;99.90
2913;DHT22;1466;48.778;9.166;2023-11-18T03:02:26;8.80;99.90
2913;DHT22;1466;48.778;9.166;2023-11-18T03:04:55;8.80;99.90
2913;DHT22;1466;48.778;9.166;2023-11-18T03:07:20;8.80;99.90
2913;DHT22;1466;48.778;9.166;2023-11-18T03:09:46;8.80;99.90
2913;DHT22;1466;48.778;9.166;2023-11-18T03:12:12;8.70;99.90
2913;DHT22;1466;48.778;9.166;2023-11-18T03:14:38;8.70;99.90
2913;DHT22;1466;48.778;9.166;2023-11-18T03:17:04;8.60;99.90
2913;DHT22;1466;48.778;9.166;2023-11-18T03:19:34;8.60;99.90
2913;DHT22;1466;48.778;9.166;2023-11-18T03:22:03;8.50;99.90
2913;DHT22;1466;48.778;9.166;2023-11-18T03:24:28;8.50;99.90
2913;DHT22;1466;48.778;9.166;2023-11-18T03:26:55;8.40;99.90
2913;DHT22;1466;48.778;9.166;2023-11-18T03:29:20;8.40;99.90
2913;DHT22;1466;48.778;9.166;2023-11-18T03:31:46;8.40;99.90
2913;DHT22;1466;48.778;9.166;2023-11-18T03:34:15;8.40;99.90
2913;DHT22;1466;48.778;9.166;2023-11-18T03:36:40;8.40;99.90
2913;DHT22;1466;48.778;9.166;2023-11-18T03:39:06;8.40;99.90
2913;DHT22;1466;48.778;9.166;2023-11-18T03:41:32;8.50;99.90
2913;DHT22;1466;48.778;9.166;2023-11-18T03:43:57;8.50;99.90
2913;DHT22;1466;48.778;9.166;2023-11-18T03:46:23;8.40;99.90
2913;DHT22;1466;48.778;9.166;2023-11-18T03:48:49;8.40;99.90
2913;DHT22;1466;48.778;9.166;2023-11-18T03:51:14;8.40;99.90
2913;DHT22;1466;48.778;9.166;2023-11-18T03:53:42;8.40;99.90
2913;DHT22;1466;48.778;9.166;2023-11-18T03:56:08;8.40;99.90
2913;DHT22;1466;48.778;9.166;2023-11-18T03:58:34;8.40;99.90
2913;DHT22;1466;48.778;9.166;2023-11-18T04:01:01;8.40;99.90
2913;DHT22;1466;48.778;9.166;2023-11-18T04:03:27;8.40;99.90
2913;DHT22;1466;48.778;9.166;2023-11-18T04:05:52;8.40;99.90
2913;DHT22;1466;48.778;9.166;2023-11-18T04:08:18;8.40;99.90
2913;DHT22;1466;48.778;9.166;2023-11-18T04:10:43;8.40;99.90
2913;DHT22;1466;48.778;9.166;2023-11-18T04:13:09;8.40;99.90
2913;DHT22;1466;48.778;9.166;2023-11-18T04:15:35;8.40;99.90
2913;DHT22;1466;48.778;9.166;2023-11-18T04:18:01;8.30;99.90
2913;DHT22;1466;48.778;9.166;2023-11-18T04:20:27;8.30;99.90
2913;DHT22;1466;48.778;9.166;2023-11-18T04:22:52;8.30;99.90
2913;DHT22;1466;48.778;9.166;2023-11-18T04:25:19;8.30;99.90
2913;DHT22;1466;48.778;9.166;2023-11-18T04:27:46;8.40;99.90
2913;DHT22;1466;48.778;9.166;2023-11-18T04:30:12;8.40;99.90
2913;DHT22;1466;48.778;9.166;2023-11-18T04:32:38;8.30;99.90
2913;DHT22;1466;48.778;9.166;2023-11-18T04:35:04;8.20;99.90
2913;DHT22;1466;48.778;9.166;2023-11-18T04:37:35;8.20;99.90
2913;DHT22;1466;48.778;9.166;2023-11-18T04:40:03;8.20;99.90
2913;DHT22;1466;48.778;9.166;2023-11-18T04:42:29;8.20;99.90
2913;DHT22;1466;48.778;9.166;2023-11-18T04:44:56;8.20;99.90
2913;DHT22;1466;48.778;9.166;2023-11-18T04:47:22;8.20;99.90
2913;DHT22;1466;48.778;9.166;2023-11-18T04:49:47;8.20;99.90
2913;DHT22;1466;48.778;9.166;2023-11-18T04:52:13;8.20;99.90
2913;DHT22;1466;48.778;9.166;2023-11-18T04:54:39;8.10;99.90
2913;DHT22;1466;48.778;9.166;2023-11-18T04:57:04;8.10;99.90
2913;DHT22;1466;48.778;9.166;2023-11-18T04:59:30;8.00;99.90
2913;DHT22;1466;48.778;9.166;2023-11-18T05:01:58;8.00;99.90
2913;DHT22;1466;48.778;9.166;2023-11-18T05:04:23;8.00;99.90
2913;DHT22;1466;48.778;9.166;2023-11-18T05:06:49;8.00;99.90
2913;DHT22;1466;48.778;9.166;2023-11-18T05:09:15;8.00;99.90
2913;DHT22;1466;48.778;9.166;2023-11-18T05:11:43;7.90;99.90
2913;DHT22;1466;48.778;9.166;2023-11-18T05:14:10;7.90;99.90
2913;DHT22;1466;48.778;9.166;2023-11-18T05:16:36;7.80;99.90
2913;DHT22;1466;48.778;9.166;2023-11-18T05:19:02;7.80;99.90
2913;DHT22;1466;48.778;9.166;2023-11-18T05:21:28;7.90;99.90
2913;DHT22;1466;48.778;9.166;2023-11-18T05:23:54;7.90;99.90
2913;DHT22;1466;48.778;9.166;2023-11-18T05:26:19;7.90;99.90
2913;DHT22;1466;48.778;9.166;2023-11-18T05:28:45;7.80;99.90
2913;DHT22;1466;48.778;9.166;2023-11-18T05:31:11;7.70;99.90
2913;DHT22;1466;48.778;9.166;2023-11-18T05:33:37;7.70;99.90
2913;DHT22;1466;48.778;9.166;2023-11-18T05:36:03;7.70;99.90
2913;DHT22;1466;48.778;9.166;2023-11-18T05:38:30;7.70;99.90
2913;DHT22;1466;48.778;9.166;2023-11-18T05:41:00;7.70;99.90
2913;DHT22;1466;48.778;9.166;2023-11-18T05:43:30;7.70;99.90
2913;DHT22;1466;48.778;9.166;2023-11-18T05:46:02;7.70;99.90
2913;DHT22;1466;48.778;9.166;2023-11-18T05:48:44;7.60;99.90
2913;DHT22;1466;48.778;9.166;2023-11-18T05:51:10;7.60;99.90
2913;DHT22;1466;48.778;9.166;2023-11-18T05:53:42;7.50;99.90
2913;DHT22;1466;48.778;9.166;2023-11-18T05:56:12;7.60;99.90
2913;DHT22;1466;48.778;9.166;2023-11-18T05:58:37;7.60;99.90
2913;DHT22;1466;48.778;9.166;2023-11-18T06:01:06;7.60;99.90
2913;DHT22;1466;48.778;9.166;2023-11-18T06:03:35;7.60;99.90
2913;DHT22;1466;48.778;9.166;2023-11-18T06:06:07;7.60;99.90
2913;DHT22;1466;48.778;9.166;2023-11-18T06:08:34;7.60;99.90
2913;DHT22;1466;48.778;9.166;2023-11-18T06:11:00;7.60;99.90
2913;DHT22;1466;48.778;9.166;2023-11-18T06:13:30;7.70;99.90
2913;DHT22;1466;48.778;9.166;2023-11-18T06:15:56;7.70;99.90
2913;DHT22;1466;48.778;9.166;2023-11-18T06:18:24;7.70;99.90
2913;DHT22;1466;48.778;9.166;2023-11-18T06:20:49;7.70;99.90
2913;DHT22;1466;48.778;9.166;2023-11-18T06:23:15;7.70;99.90
2913;DHT22;1466;48.778;9.166;2023-11-18T06:25:43;7.70;99.90
2913;DHT22;1466;48.778;9.166;2023-11-18T06:28:11;7.70;99.90
2913;DHT22;1466;48.778;9.166;2023-11-18T06:30:36;7.60;99.90
2913;DHT22;1466;48.778;9.166;2023-11-18T06:33:02;7.60;99.90
2913;DHT22;1466;48.778;9.166;2023-11-18T06:35:28;7.50;99.90
2913;DHT22;1466;48.778;9.166;2023-11-18T06:37:55;7.50;99.90
2913;DHT22;1466;48.778;9.166;2023-11-18T06:40:20;7.60;99.90
2913;DHT22;1466;48.778;9.166;2023-11-18T06:42:47;7.60;99.90
2913;DHT22;1466;48.778;9.166;2023-11-18T06:45:14;7.60;99.90
2913;DHT22;1466;48.778;9.166;2023-11-18T06:47:42;7.50;99.90
2913;DHT22;1466;48.778;9.166;2023-11-18T06:50:10;7.50;99.90
2913;DHT22;1466;48.778;9.166;2023-11-18T06:52:40;7.50;99.90
2913;DHT22;1466;48.778;9.166;2023-11-18T06:55:07;7.50;99.90
2913;DHT22;1466;48.778;9.166;2023-11-18T06:57:34;7.50;99.90
2913;DHT22;1466;48.778;9.166;2023-11-18T07:00:00;7.50;99.90
2913;DHT22;1466;48.778;9.166;2023-11-18T07:02:25;7.50;99.90
2913;DHT22;1466;48.778;9.166;2023-11-18T07:04:51;7.50;99.90
2913;DHT22;1466;48.778;9.166;2023-11-18T07:07:16;7.50;99.90
2913;DHT22;1466;48.778;9.166;2023-11-18T07:09:42;7.50;99.90
2913;DHT22;1466;48.778;9.166;2023-11-18T07:12:09;7.50;99.90
2913;DHT22;1466;48.778;9.166;2023-11-18T07:14:35;7.60;99.90
2913;DHT22;1466;48.778;9.166;2023-11-18T07:17:01;7.60;99.90
2913;DHT22;1466;48.778;9.166;2023-11-18T07:19:26;7.70;99.90
2913;DHT22;1466;48.778;9.166;2023-11-18T07:21:52;7.80;99.90
2913;DHT22;1466;48.778;9.166;2023-11-18T07:24:19;7.80;99.90
2913;DHT22;1466;48.778;9.166;2023-11-18T07:26:45;7.80;99.90
2913;DHT22;1466;48.778;9.166;2023-11-18T07:29:11;7.90;99.90
2913;DHT22;1466;48.778;9.166;2023-11-18T07:31:36;7.90;99.90
2913;DHT22;1466;48.778;9.166;2023-11-18T07:34:03;7.90;99.90
2913;DHT22;1466;48.778;9.166;2023-11-18T07:36:31;7.90;99.90
2913;DHT22;1466;48.778;9.166;2023-11-18T07:38:56;7.90;99.90
2913;DHT22;1466;48.778;9.166;2023-11-18T07:41:24;7.90;99.90
2913;DHT22;1466;48.778;9.166;2023-11-18T07:43:53;7.90;99.90
2913;DHT22;1466;48.778;9.166;2023-11-18T07:46:20;7.90;99.90
2913;DHT22;1466;48.778;9.166;2023-11-18T07:48:49;8.00;99.90
2913;DHT22;1466;48.778;9.166;2023-11-18T07:51:16;8.00;99.90
2913;DHT22;1466;48.778;9.166;2023-11-18T07:53:42;8.00;99.90
2913;DHT22;1466;48.778;9.166;2023-11-18T07:56:07;8.00;99.90
2913;DHT22;1466;48.778;9.166;2023-11-18T07:58:37;8.00;99.90
2913;DHT22;1466;48.778;9.166;2023-11-18T08:01:04;8.00;99.90
2913;DHT22;1466;48.778;9.166;2023-11-18T08:03:33;8.10;99.90
2913;DHT22;1466;48.778;9.166;2023-11-18T08:05:59;8.10;99.90
2913;DHT22;1466;48.778;9.166;2023-11-18T08:08:24;8.10;99.90
2913;DHT22;1466;48.778;9.166;2023-11-18T08:10:50;8.20;99.90
2913;DHT22;1466;48.778;9.166;2023-11-18T08:13:16;8.30;99.90
2913;DHT22;1466;48.778;9.166;2023-11-18T08:15:42;8.30;99.90
2913;DHT22;1466;48.778;9.166;2023-11-18T08:18:10;8.40;99.90
2913;DHT22;1466;48.778;9.166;2023-11-18T08:20:36;8.50;99.90
2913;DHT22;1466;48.778;9.166;2023-11-18T08:23:02;8.50;99.90
2913;DHT22;1466;48.778;9.166;2023-11-18T08:25:30;8.60;99.90
2913;DHT22;1466;48.778;9.166;2023-11-18T08:27:58;8.60;99.90
2913;DHT22;1466;48.778;9.166;2023-11-18T08:30:23;8.70;99.90
2913;DHT22;1466;48.778;9.166;2023-11-18T08:32:49;8.70;99.90
2913;DHT22;1466;48.778;9.166;2023-11-18T08:35:15;8.80;99.90
2913;DHT22;1466;48.778;9.166;2023-11-18T08:37:44;8.80;99.90
2913;DHT22;1466;48.778;9.166;2023-11-18T08:40:11;8.90;99.90
2913;DHT22;1466;48.778;9.166;2023-11-18T08:42:50;8.90;99.90
2913;DHT22;1466;48.778;9.166;2023-11-18T08:45:20;8.90;99.90
2913;DHT22;1466;48.778;9.166;2023-11-18T08:47:53;8.90;99.90
2913;DHT22;1466;48.778;9.166;2023-11-18T08:50:19;9.00;99.90
2913;DHT22;1466;48.778;9.166;2023-11-18T08:52:47;9.10;99.90
2913;DHT22;1466;48.778;9.166;2023-11-18T08:55:14;9.20;99.90
2913;DHT22;1466;48.778;9.166;2023-11-18T08:57:51;9.20;99.90
2913;DHT22;1466;48.778;9.166;2023-11-18T09:00:30;9.20;99.90
2913;DHT22;1466;48.778;9.166;2023-11-18T09:03:14;9.20;99.90
2913;DHT22;1466;48.778;9.166;2023-11-18T09:05:54;9.30;99.90
2913;DHT22;1466;48.778;9.166;2023-11-18T09:08:33;9.40;99.90
2913;DHT22;1466;48.778;9.166;2023-11-18T09:11:04;9.40;99.90
2913;DHT22;1466;48.778;9.166;2023-11-18T09:13:34;9.40;99.90
2913;DHT22;1466;48.778;9.166;2023-11-18T09:16:06;9.40;99.90
2913;DHT22;1466;48.778;9.166;2023-11-18T09:18:36;9.50;99.90
2913;DHT22;1466;48.778;9.166;2023-11-18T09:21:02;9.50;99.90
2913;DHT22;1466;48.778;9.166;2023-11-18T09:23:29;9.50;99.90
2913;DHT22;1466;48.778;9.166;2023-11-18T09:25:57;9.50;99.90
2913;DHT22;1466;48.778;9.166;2023-11-18T09:28:27;9.50;99.90
2913;DHT22;1466;48.778;9.166;2023-11-18T09:30:56;9.50;99.90
2913;DHT22;1466;48.778;9.166;2023-11-18T09:33:26;9.50;99.90
2913;DHT22;1466;48.778;9.166;2023-11-18T09:36:02;9.60;99.90
2913;DHT22;1466;48.778;9.166;2023-11-18T09:38:32;9.60;99.90
2913;DHT22;1466;48.778;9.166;2023-11-18T09:40:58;9.70;99.90
2913;DHT22;1466;48.778;9.166;2023-11-18T09:43:31;9.80;99.90
2913;DHT22;1466;48.778;9.166;2023-11-18T09:46:16;9.70;99.90
2913;DHT22;1466;48.778;9.166;2023-11-18T09:51:18;9.80;99.90
2913;DHT22;1466;48.778;9.166;2023-11-18T09:53:51;9.80;99.90
2913;DHT22;1466;48.778;9.166;2023-11-18T09:56:31;9.80;99.90
2913;DHT22;1466;48.778;9.166;2023-11-18T10:01:53;10.00;99.90
2913;DHT22;1466;48.778;9.166;2023-11-18T10:04:25;10.10;99.90
2913;DHT22;1466;48.778;9.166;2023-11-18T10:06:53;10.10;99.90
2913;DHT22;1466;48.778;9.166;2023-11-18T10:09:20;10.20;99.90
2913;DHT22;1466;48.778;9.166;2023-11-18T10:11:54;10.20;99.90
2913;DHT22;1466;48.778;9.166;2023-11-18T10:14:33;10.20;99.90
2913;DHT22;1466;48.778;9.166;2023-11-18T10:17:06;10.30;99.90
2913;DHT22;1466;48.778;9.166;2023-11-18T10:22:24;10.40;99.90
2913;DHT22;1466;48.778;9.166;2023-11-18T10:24:51;10.40;99.90
2913;DHT22;1466;48.778;9.166;2023-11-18T10:27:23;10.40;99.90
2913;DHT22;1466;48.778;9.166;2023-11-18T10:29:50;10.40;99.90
2913;DHT22;1466;48.778;9.166;2023-11-18T10:32:20;10.40;99.90
2913;DHT22;1466;48.778;9.166;2023-11-18T10:34:48;10.50;99.90
2913;DHT22;1466;48.778;9.166;2023-11-18T10:37:17;10.60;99.90
2913;DHT22;1466;48.778;9.166;2023-11-18T10:39:47;10.60;99.90
2913;DHT22;1466;48.778;9.166;2023-11-18T10:42:25;10.60;99.90
2913;DHT22;1466;48.778;9.166;2023-11-18T10:47:26;10.70;99.90
2913;DHT22;1466;48.778;9.166;2023-11-18T10:49:56;10.70;99.90
2913;DHT22;1466;48.778;9.166;2023-11-18T10:52:23;10.80;99.90
2913;DHT22;1466;48.778;9.166;2023-11-18T10:54:55;10.80;99.90
2913;DHT22;1466;48.778;9.166;2023-11-18T10:57:22;10.80;99.90
2913;DHT22;1466;48.778;9.166;2023-11-18T11:00:04;10.80;99.90
2913;DHT22;1466;48.778;9.166;2023-11-18T11:02:41;10.80;99.90
2913;DHT22;1466;48.778;9.166;2023-11-18T11:05:10;10.80;99.90
2913;DHT22;1466;48.778;9.166;2023-11-18T11:07:42;10.80;99.90
2913;DHT22;1466;48.778;9.166;2023-11-18T11:10:09;10.80;99.90
2913;DHT22;1466;48.778;9.166;2023-11-18T11:12:50;10.80;99.90
2913;DHT22;1466;48.778;9.166;2023-11-18T11:15:23;10.80;99.90
2913;DHT22;1466;48.778;9.166;2023-11-18T11:17:54;10.80;99.90
2913;DHT22;1466;48.778;9.166;2023-11-18T11:20:30;10.90;99.90
2913;DHT22;1466;48.778;9.166;2023-11-18T11:23:21;11.00;99.90
2913;DHT22;1466;48.778;9.166;2023-11-18T11:29:36;11.10;99.90
2913;DHT22;1466;48.778;9.166;2023-11-18T11:31:41;11.10;99.90
2913;DHT22;1466;48.778;9.166;2023-11-18T11:34:16;11.20;99.90
2913;DHT22;1466;48.778;9.166;2023-11-18T11:36:44;11.30;99.90
2913;DHT22;1466;48.778;9.166;2023-11-18T11:39:13;11.30;99.90
2913;DHT22;1466;48.778;9.166;2023-11-18T11:41:46;11.30;99.90
2913;DHT22;1466;48.778;9.166;2023-11-18T11:44:16;11.30;99.90
2913;DHT22;1466;48.778;9.166;2023-11-18T11:46:45;11.30;99.90
2913;DHT22;1466;48.778;9.166;2023-11-18T11:49:12;11.30;99.90
2913;DHT22;1466;48.778;9.166;2023-11-18T11:52:11;11.30;99.90
2913;DHT22;1466;48.778;9.166;2023-11-18T11:55:11;11.20;99.90
2913;DHT22;1466;48.778;9.166;2023-11-18T11:57:39;11.20;99.90
2913;DHT22;1466;48.778;9.166;2023-11-18T12:00:08;11.20;99.90
2913;DHT22;1466;48.778;9.166;2023-11-18T12:02:48;11.20;99.90
2913;DHT22;1466;48.778;9.166;2023-11-18T12:05:17;11.20;99.90
2913;DHT22;1466;48.778;9.166;2023-11-18T12:07:51;11.20;99.90
2913;DHT22;1466;48.778;9.166;2023-11-18T12:10:17;11.20;99.90
2913;DHT22;1466;48.778;9.166;2023-11-18T12:12:47;11.10;99.90
2913;DHT22;1466;48.778;9.166;2023-11-18T12:15:13;11.10;99.90
2913;DHT22;1466;48.778;9.166;2023-11-18T12:20:46;11.10;99.90
2913;DHT22;1466;48.778;9.166;2023-11-18T12:23:19;11.10;99.90
2913;DHT22;1466;48.778;9.166;2023-11-18T12:25:49;11.10;99.90
2913;DHT22;1466;48.778;9.166;2023-11-18T12:30:57;11.10;99.90
2913;DHT22;1466;48.778;9.166;2023-11-18T12:33:24;11.10;99.90
2913;DHT22;1466;48.778;9.166;2023-11-18T12:40:55;11.10;99.90
2913;DHT22;1466;48.778;9.166;2023-11-18T12:49:14;11.10;99.90
2913;DHT22;1466;48.778;9.166;2023-11-18T12:51:49;11.10;99.90
2913;DHT22;1466;48.778;9.166;2023-11-18T12:54:16;11.20;99.90
2913;DHT22;1466;48.778;9.166;2023-11-18T12:56:44;11.20;99.90
2913;DHT22;1466;48.778;9.166;2023-11-18T12:59:14;11.20;99.90
2913;DHT22;1466;48.778;9.166;2023-11-18T13:01:48;11.20;99.90
2913;DHT22;1466;48.778;9.166;2023-11-18T13:04:19;11.10;99.90
2913;DHT22;1466;48.778;9.166;2023-11-18T13:06:48;11.10;99.90
2913;DHT22;1466;48.778;9.166;2023-11-18T13:09:14;11.10;99.90
2913;DHT22;1466;48.778;9.166;2023-11-18T13:11:54;11.00;99.90
2913;DHT22;1466;48.778;9.166;2023-11-18T13:14:22;11.00;99.90
2913;DHT22;1466;48.778;9.166;2023-11-18T13:16:51;10.90;99.90
2913;DHT22;1466;48.778;9.166;2023-11-18T13:19:25;10.90;99.90
2913;DHT22;1466;48.778;9.166;2023-11-18T13:21:51;10.90;99.90
2913;DHT22;1466;48.778;9.166;2023-11-18T13:24:17;10.90;99.90
2913;DHT22;1466;48.778;9.166;2023-11-18T13:26:43;10.90;99.90
2913;DHT22;1466;48.778;9.166;2023-11-18T13:29:08;10.90;99.90
2913;DHT22;1466;48.778;9.166;2023-11-18T13:31:34;10.90;99.90
2913;DHT22;1466;48.778;9.166;2023-11-18T13:34:01;10.80;99.90
2913;DHT22;1466;48.778;9.166;2023-11-18T13:36:26;10.80;99.90
2913;DHT22;1466;48.778;9.166;2023-11-18T13:38:52;10.80;99.90
2913;DHT22;1466;48.778;9.166;2023-11-18T13:41:30;10.80;99.90
2913;DHT22;1466;48.778;9.166;2023-11-18T13:43:57;10.80;99.90
2913;DHT22;1466;48.778;9.166;2023-11-18T13:46:24;10.70;99.90
2913;DHT22;1466;48.778;9.166;2023-11-18T13:48:51;10.70;99.90
2913;DHT22;1466;48.778;9.166;2023-11-18T13:51:19;10.70;99.90
2913;DHT22;1466;48.778;9.166;2023-11-18T13:53:45;10.70;99.90
2913;DHT22;1466;48.778;9.166;2023-11-18T13:56:15;10.70;99.90
2913;DHT22;1466;48.778;9.166;2023-11-18T13:58:43;10.70;99.90
2913;DHT22;1466;48.778;9.166;2023-11-18T14:01:11;10.70;99.90
2913;DHT22;1466;48.778;9.166;2023-11-18T14:03:38;10.80;99.90
2913;DHT22;1466;48.778;9.166;2023-11-18T14:06:08;10.80;99.90
2913;DHT22;1466;48.778;9.166;2023-11-18T14:08:38;10.80;99.90
2913;DHT22;1466;48.778;9.166;2023-11-18T14:11:05;10.70;99.90
2913;DHT22;1466;48.778;9.166;2023-11-18T14:13:31;10.70;99.90
2913;DHT22;1466;48.778;9.166;2023-11-18T14:15:58;10.70;99.90
2913;DHT22;1466;48.778;9.166;2023-11-18T14:18:25;10.70;99.90
2913;DHT22;1466;48.778;9.166;2023-11-18T14:20:50;10.70;99.90
2913;DHT22;1466;48.778;9.166;2023-11-18T14:23:16;10.70;99.90
2913;DHT22;1466;48.778;9.166;2023-11-18T14:25:41;10.70;99.90
2913;DHT22;1466;48.778;9.166;2023-11-18T14:28:07;10.70;99.90
2913;DHT22;1466;48.778;9.166;2023-11-18T14:30:35;10.70;99.90
2913;DHT22;1466;48.778;9.166;2023-11-18T14:33:01;10.70;99.90
2913;DHT22;1466;48.778;9.166;2023-11-18T14:35:27;10.70;99.90
2913;DHT22;1466;48.778;9.166;2023-11-18T14:37:52;10.70;99.90
2913;DHT22;1466;48.778;9.166;2023-11-18T14:40:18;10.70;99.90
2913;DHT22;1466;48.778;9.166;2023-11-18T14:42:46;10.70;99.90
2913;DHT22;1466;48.778;9.166;2023-11-18T14:45:15;10.70;99.90
2913;DHT22;1466;48.778;9.166;2023-11-18T14:47:42;10.70;99.90
2913;DHT22;1466;48.778;9.166;2023-11-18T14:50:22;10.70;99.90
2913;DHT22;1466;48.778;9.166;2023-11-18T14:52:50;10.70;99.90
2913;DHT22;1466;48.778;9.166;2023-11-18T14:55:22;10.70;99.90
2913;DHT22;1466;48.778;9.166;2023-11-18T14:57:47;10.60;99.90
2913;DHT22;1466;48.778;9.166;2023-11-18T15:00:14;10.70;99.90
2913;DHT22;1466;48.778;9.166;2023-11-18T15:02:49;10.70;99.90
2913;DHT22;1466;48.778;9.166;2023-11-18T15:05:16;10.70;99.90
2913;DHT22;1466;48.778;9.166;2023-11-18T15:10:10;10.70;99.90
2913;DHT22;1466;48.778;9.166;2023-11-18T15:12:36;10.70;99.90
2913;DHT22;1466;48.778;9.166;2023-11-18T15:15:03;10.80;99.90
2913;DHT22;1466;48.778;9.166;2023-11-18T15:17:30;10.70;99.90
2913;DHT22;1466;48.778;9.166;2023-11-18T15:19:55;10.70;99.90
2913;DHT22;1466;48.778;9.166;2023-11-18T15:22:21;10.70;99.90
2913;DHT22;1466;48.778;9.166;2023-11-18T15:24:48;10.70;99.90
2913;DHT22;1466;48.778;9.166;2023-11-18T15:27:14;10.70;99.90
2913;DHT22;1466;48.778;9.166;2023-11-18T15:29:40;10.70;99.90
2913;DHT22;1466;48.778;9.166;2023-11-18T15:32:16;10.70;99.90
2913;DHT22;1466;48.778;9.166;2023-11-18T15:34:42;10.70;99.90
2913;DHT22;1466;48.778;9.166;2023-11-18T15:37:08;10.70;99.90
2913;DHT22;1466;48.778;9.166;2023-11-18T15:39:34;10.70;99.90
2913;DHT22;1466;48.778;9.166;2023-11-18T15:42:00;10.60;99.90
2913;DHT22;1466;48.778;9.166;2023-11-18T15:44:26;10.60;99.90
2913;DHT22;1466;48.778;9.166;2023-11-18T15:46:54;10.60;99.90
2913;DHT22;1466;48.778;9.166;2023-11-18T15:49:19;10.60;99.90
2913;DHT22;1466;48.778;9.166;2023-11-18T15:51:45;10.60;99.90
2913;DHT22;1466;48.778;9.166;2023-11-18T15:54:11;10.60;99.90
2913;DHT22;1466;48.778;9.166;2023-11-18T15:56:40;10.60;99.90
2913;DHT22;1466;48.778;9.166;2023-11-18T15:59:08;10.60;99.90
2913;DHT22;1466;48.778;9.166;2023-11-18T16:01:34;10.60;99.90
2913;DHT22;1466;48.778;9.166;2023-11-18T16:04:00;10.60;99.90
2913;DHT22;1466;48.778;9.166;2023-11-18T16:06:26;10.60;99.90
2913;DHT22;1466;48.778;9.166;2023-11-18T16:08:51;10.60;99.90
2913;DHT22;1466;48.778;9.166;2023-11-18T16:17:15;10.60;99.90
2913;DHT22;1466;48.778;9.166;2023-11-18T16:19:40;10.50;99.90
2913;DHT22;1466;48.778;9.166;2023-11-18T16:22:06;10.50;99.90
2913;DHT22;1466;48.778;9.166;2023-11-18T16:24:32;10.50;99.90
2913;DHT22;1466;48.778;9.166;2023-11-18T16:26:58;10.50;99.90
2913;DHT22;1466;48.778;9.166;2023-11-18T16:29:23;10.60;99.90
2913;DHT22;1466;48.778;9.166;2023-11-18T16:31:49;10.60;99.90
2913;DHT22;1466;48.778;9.166;2023-11-18T16:34:14;10.60;99.90
2913;DHT22;1466;48.778;9.166;2023-11-18T16:36:40;10.60;99.90
2913;DHT22;1466;48.778;9.166;2023-11-18T16:39:06;10.60;99.90
2913;DHT22;1466;48.778;9.166;2023-11-18T16:41:32;10.60;99.90
2913;DHT22;1466;48.778;9.166;2023-11-18T16:43:58;10.60;99.90
2913;DHT22;1466;48.778;9.166;2023-11-18T16:46:23;10.50;99.90
2913;DHT22;1466;48.778;9.166;2023-11-18T16:48:50;10.50;99.90
2913;DHT22;1466;48.778;9.166;2023-11-18T16:51:15;10.50;99.90
2913;DHT22;1466;48.778;9.166;2023-11-18T16:53:42;10.50;99.90
2913;DHT22;1466;48.778;9.166;2023-11-18T16:56:08;10.50;99.90
2913;DHT22;1466;48.778;9.166;2023-11-18T16:58:34;10.50;99.90
2913;DHT22;1466;48.778;9.166;2023-11-18T17:01:00;10.50;99.90
2913;DHT22;1466;48.778;9.166;2023-11-18T17:03:25;10.60;99.90